sensor_id;sensor_type;location;lat;lon;timestamp;pressure;altitude;pressure_sealevel;temperature;humidity
42001;BME280;27689;48.390;10.856;2023-12-14T00:00:56;95029.94;;;5.75;100.00
42001;BME280;27689;48.390;10.856;2023-12-14T00:03:40;95032.91;;;5.80;100.00
42001;BME280;27689;48.390;10.856;2023-12-14T00:06:30;95033.47;;;5.84;100.00
42001;BME280;27689;48.390;10.856;2023-12-14T00:09:14;95029.00;;;5.76;100.00
42001;BME280;27689;48.390;10.856;2023-12-14T00:11:58;95037.97;;;5.82;100.00
42001;BME280;27689;48.390;10.856;2023-12-14T00:14:42;95044.81;;;5.83;100.00
42001;BME280;27689;48.390;10.856;2023-12-14T00:17:26;95044.13;;;5.90;100.00
42001;BME280;27689;48.390;10.856;2023-12-14T00:20:10;95044.88;;;5.73;100.00
42001;BME280;27689;48.390;10.856;2023-12-14T00:22:54;95051.28;;;5.79;100.00
42001;BME280;27689;48.390;10.856;2023-12-14T00:25:38;95043.38;;;5.71;100.00
42001;BME280;27689;48.390;10.856;2023-12-14T00:28:22;95050.13;;;5.63;100.00
42001;BME280;27689;48.390;10.856;2023-12-14T00:31:06;95061.16;;;5.65;100.00
42001;BME280;27689;48.390;10.856;2023-12-14T00:33:50;95069.09;;;5.64;100.00
42001;BME280;27689;48.390;10.856;2023-12-14T00:36:34;95065.84;;;5.62;100.00
42001;BME280;27689;48.390;10.856;2023-12-14T00:39:18;95071.53;;;5.65;100.00
42001;BME280;27689;48.390;10.856;2023-12-14T00:42:02;95070.72;;;5.75;100.00
42001;BME280;27689;48.390;10.856;2023-12-14T00:44:47;95087.13;;;5.75;100.00
42001;BME280;27689;48.390;10.856;2023-12-14T00:47:31;95084.13;;;5.70;100.00
42001;BME280;27689;48.390;10.856;2023-12-14T00:50:14;95091.34;;;5.76;100.00
42001;BME280;27689;48.390;10.856;2023-12-14T00:52:59;95094.09;;;5.75;100.00
42001;BME280;27689;48.390;10.856;2023-12-14T00:55:43;95104.09;;;5.70;100.00
42001;BME280;27689;48.390;10.856;2023-12-14T00:58:27;95104.13;;;5.60;100.00
42001;BME280;27689;48.390;10.856;2023-12-14T01:01:11;95108.38;;;5.61;100.00
42001;BME280;27689;48.390;10.856;2023-12-14T01:03:55;95109.88;;;5.54;100.00
42001;BME280;27689;48.390;10.856;2023-12-14T01:06:40;95109.03;;;5.63;100.00
42001;BME280;27689;48.390;10.856;2023-12-14T01:09:24;95108.78;;;5.56;100.00
42001;BME280;27689;48.390;10.856;2023-12-14T01:12:08;95117.81;;;5.62;100.00
42001;BME280;27689;48.390;10.856;2023-12-14T01:14:51;95128.19;;;5.62;100.00
42001;BME280;27689;48.390;10.856;2023-12-14T01:17:35;95131.34;;;5.56;100.00
42001;BME280;27689;48.390;10.856;2023-12-14T01:20:21;95141.88;;;5.54;100.00
42001;BME280;27689;48.390;10.856;2023-12-14T01:23:05;95144.47;;;5.54;100.00
42001;BME280;27689;48.390;10.856;2023-12-14T01:25:49;95145.16;;;5.47;100.00
42001;BME280;27689;48.390;10.856;2023-12-14T01:28:32;95152.53;;;5.51;100.00
42001;BME280;27689;48.390;10.856;2023-12-14T01:31:16;95157.59;;;5.53;100.00
42001;BME280;27689;48.390;10.856;2023-12-14T01:34:00;95160.72;;;5.56;100.00
42001;BME280;27689;48.390;10.856;2023-12-14T01:36:44;95167.03;;;5.54;100.00
42001;BME280;27689;48.390;10.856;2023-12-14T01:39:28;95174.97;;;5.43;100.00
42001;BME280;27689;48.390;10.856;2023-12-14T01:42:12;95176.75;;;5.42;100.00
42001;BME280;27689;48.390;10.856;2023-12-14T01:44:56;95175.38;;;5.48;100.00
42001;BME280;27689;48.390;10.856;2023-12-14T01:47:40;95179.63;;;5.49;100.00
42001;BME280;27689;48.390;10.856;2023-12-14T01:50:24;95187.13;;;5.42;100.00
42001;BME280;27689;48.390;10.856;2023-12-14T01:53:07;95181.00;;;5.43;100.00
42001;BME280;27689;48.390;10.856;2023-12-14T01:55:52;95190.97;;;5.48;100.00
42001;BME280;27689;48.390;10.856;2023-12-14T01:58:36;95194.53;;;5.47;100.00
42001;BME280;27689;48.390;10.856;2023-12-14T02:01:25;95195.47;;;5.46;100.00
42001;BME280;27689;48.390;10.856;2023-12-14T02:04:12;95204.91;;;5.47;100.00
42001;BME280;27689;48.390;10.856;2023-12-14T02:06:56;95207.66;;;5.45;100.00
42001;BME280;27689;48.390;10.856;2023-12-14T02:09:40;95210.09;;;5.37;100.00
42001;BME280;27689;48.390;10.856;2023-12-14T02:12:24;95218.44;;;5.41;100.00
42001;BME280;27689;48.390;10.856;2023-12-14T02:15:08;95214.22;;;5.30;100.00
42001;BME280;27689;48.390;10.856;2023-12-14T02:17:52;95218.84;;;5.26;100.00
42001;BME280;27689;48.390;10.856;2023-12-14T02:20:36;95218.97;;;5.25;100.00
42001;BME280;27689;48.390;10.856;2023-12-14T02:23:20;95220.75;;;5.24;100.00
42001;BME280;27689;48.390;10.856;2023-12-14T02:26:04;95216.94;;;5.19;100.00
42001;BME280;27689;48.390;10.856;2023-12-14T02:28:48;95223.09;;;5.18;100.00
42001;BME280;27689;48.390;10.856;2023-12-14T02:31:32;95231.00;;;5.26;100.00
42001;BME280;27689;48.390;10.856;2023-12-14T02:34:16;95231.41;;;5.21;100.00
42001;BME280;27689;48.390;10.856;2023-12-14T02:37:00;95239.19;;;5.21;100.00
42001;BME280;27689;48.390;10.856;2023-12-14T02:39:44;95245.75;;;5.25;100.00
42001;BME280;27689;48.390;10.856;2023-12-14T02:42:30;95240.84;;;5.22;100.00
42001;BME280;27689;48.390;10.856;2023-12-14T02:45:14;95250.97;;;5.25;100.00
42001;BME280;27689;48.390;10.856;2023-12-14T02:47:58;95246.03;;;5.13;100.00
42001;BME280;27689;48.390;10.856;2023-12-14T02:50:42;95250.28;;;5.14;100.00
42001;BME280;27689;48.390;10.856;2023-12-14T02:53:26;95253.13;;;5.11;100.00
42001;BME280;27689;48.390;10.856;2023-12-14T02:56:10;95258.63;;;5.17;100.00
42001;BME280;27689;48.390;10.856;2023-12-14T02:58:55;95262.81;;;5.09;100.00
42001;BME280;27689;48.390;10.856;2023-12-14T03:01:38;95262.56;;;5.12;100.00
42001;BME280;27689;48.390;10.856;2023-12-14T03:04:23;95269.91;;;5.07;100.00
42001;BME280;27689;48.390;10.856;2023-12-14T03:07:07;95272.94;;;5.02;100.00
42001;BME280;27689;48.390;10.856;2023-12-14T03:09:51;95265.69;;;5.06;100.00
42001;BME280;27689;48.390;10.856;2023-12-14T03:12:35;95285.63;;;4.95;100.00
42001;BME280;27689;48.390;10.856;2023-12-14T03:15:19;95289.28;;;4.93;100.00
42001;BME280;27689;48.390;10.856;2023-12-14T03:18:02;95289.72;;;4.98;100.00
42001;BME280;27689;48.390;10.856;2023-12-14T03:20:47;95298.47;;;5.07;100.00
42001;BME280;27689;48.390;10.856;2023-12-14T03:23:31;95302.97;;;5.05;100.00
42001;BME280;27689;48.390;10.856;2023-12-14T03:26:15;95300.69;;;5.11;100.00
42001;BME280;27689;48.390;10.856;2023-12-14T03:28:59;95309.00;;;5.05;100.00
42001;BME280;27689;48.390;10.856;2023-12-14T03:31:43;95312.13;;;4.99;100.00
42001;BME280;27689;48.390;10.856;2023-12-14T03:34:26;95321.69;;;4.99;100.00
42001;BME280;27689;48.390;10.856;2023-12-14T03:37:10;95314.59;;;5.01;100.00
42001;BME280;27689;48.390;10.856;2023-12-14T03:39:54;95325.53;;;5.04;100.00
42001;BME280;27689;48.390;10.856;2023-12-14T03:42:38;95327.97;;;5.06;100.00
42001;BME280;27689;48.390;10.856;2023-12-14T03:45:22;95328.53;;;5.09;100.00
42001;BME280;27689;48.390;10.856;2023-12-14T03:48:06;95332.66;;;5.12;100.00
42001;BME280;27689;48.390;10.856;2023-12-14T03:50:50;95335.75;;;5.06;100.00
42001;BME280;27689;48.390;10.856;2023-12-14T03:53:34;95343.16;;;5.01;100.00
42001;BME280;27689;48.390;10.856;2023-12-14T03:56:18;95337.97;;;5.01;100.00
42001;BME280;27689;48.390;10.856;2023-12-14T03:59:02;95333.72;;;5.00;100.00
42001;BME280;27689;48.390;10.856;2023-12-14T04:01:46;95346.31;;;5.04;100.00
42001;BME280;27689;48.390;10.856;2023-12-14T04:04:30;95351.63;;;5.03;100.00
42001;BME280;27689;48.390;10.856;2023-12-14T04:07:14;95355.00;;;4.93;100.00
42001;BME280;27689;48.390;10.856;2023-12-14T04:09:58;95356.63;;;4.94;100.00
42001;BME280;27689;48.390;10.856;2023-12-14T04:12:42;95367.84;;;4.95;100.00
42001;BME280;27689;48.390;10.856;2023-12-14T04:15:26;95366.19;;;4.94;100.00
42001;BME280;27689;48.390;10.856;2023-12-14T04:18:10;95370.88;;;5.00;100.00
42001;BME280;27689;48.390;10.856;2023-12-14T04:20:54;95377.59;;;5.12;100.00
42001;BME280;27689;48.390;10.856;2023-12-14T04:23:38;95378.31;;;5.14;100.00
42001;BME280;27689;48.390;10.856;2023-12-14T04:26:22;95378.13;;;5.06;100.00
42001;BME280;27689;48.390;10.856;2023-12-14T04:29:06;95392.09;;;5.15;100.00
42001;BME280;27689;48.390;10.856;2023-12-14T04:31:50;95381.28;;;5.10;100.00
42001;BME280;27689;48.390;10.856;2023-12-14T04:34:34;95392.22;;;5.04;100.00
42001;BME280;27689;48.390;10.856;2023-12-14T04:37:18;95394.22;;;5.00;100.00
42001;BME280;27689;48.390;10.856;2023-12-14T04:40:02;95398.03;;;4.96;100.00
42001;BME280;27689;48.390;10.856;2023-12-14T04:42:46;95403.06;;;4.88;100.00
42001;BME280;27689;48.390;10.856;2023-12-14T04:45:31;95400.75;;;4.94;100.00
42001;BME280;27689;48.390;10.856;2023-12-14T04:48:14;95411.97;;;4.95;100.00
42001;BME280;27689;48.390;10.856;2023-12-14T04:50:58;95415.34;;;4.86;100.00
42001;BME280;27689;48.390;10.856;2023-12-14T04:53:42;95428.72;;;4.91;100.00
42001;BME280;27689;48.390;10.856;2023-12-14T04:56:26;95418.63;;;4.88;100.00
42001;BME280;27689;48.390;10.856;2023-12-14T04:59:10;95425.72;;;4.86;100.00
42001;BME280;27689;48.390;10.856;2023-12-14T05:01:54;95441.22;;;4.97;100.00
42001;BME280;27689;48.390;10.856;2023-12-14T05:04:39;95450.88;;;4.95;100.00
42001;BME280;27689;48.390;10.856;2023-12-14T05:07:23;95447.84;;;4.90;100.00
42001;BME280;27689;48.390;10.856;2023-12-14T05:10:07;95448.13;;;4.87;100.00
42001;BME280;27689;48.390;10.856;2023-12-14T05:12:51;95458.19;;;4.80;100.00
42001;BME280;27689;48.390;10.856;2023-12-14T05:15:35;95457.00;;;4.84;100.00
42001;BME280;27689;48.390;10.856;2023-12-14T05:18:18;95469.97;;;4.84;100.00
42001;BME280;27689;48.390;10.856;2023-12-14T05:21:02;95465.59;;;4.85;100.00
42001;BME280;27689;48.390;10.856;2023-12-14T05:23:46;95459.00;;;4.81;100.00
42001;BME280;27689;48.390;10.856;2023-12-14T05:26:30;95479.53;;;4.84;100.00
42001;BME280;27689;48.390;10.856;2023-12-14T05:29:14;95486.94;;;4.88;100.00
42001;BME280;27689;48.390;10.856;2023-12-14T05:31:59;95492.94;;;4.89;100.00
42001;BME280;27689;48.390;10.856;2023-12-14T05:34:43;95502.34;;;4.90;100.00
42001;BME280;27689;48.390;10.856;2023-12-14T05:37:26;95500.84;;;4.87;100.00
42001;BME280;27689;48.390;10.856;2023-12-14T05:40:10;95504.41;;;4.86;100.00
42001;BME280;27689;48.390;10.856;2023-12-14T05:42:54;95510.53;;;4.85;100.00
42001;BME280;27689;48.390;10.856;2023-12-14T05:45:38;95511.94;;;4.89;100.00
42001;BME280;27689;48.390;10.856;2023-12-14T05:48:22;95522.16;;;4.91;100.00
42001;BME280;27689;48.390;10.856;2023-12-14T05:51:06;95517.13;;;4.89;100.00
42001;BME280;27689;48.390;10.856;2023-12-14T05:53:52;95532.81;;;4.88;100.00
42001;BME280;27689;48.390;10.856;2023-12-14T05:56:39;95529.28;;;4.89;100.00
42001;BME280;27689;48.390;10.856;2023-12-14T05:59:24;95533.50;;;4.90;100.00
42001;BME280;27689;48.390;10.856;2023-12-14T06:02:19;95538.00;;;4.88;100.00
42001;BME280;27689;48.390;10.856;2023-12-14T06:05:03;95539.66;;;4.89;100.00
42001;BME280;27689;48.390;10.856;2023-12-14T06:07:47;95540.59;;;4.88;100.00
42001;BME280;27689;48.390;10.856;2023-12-14T06:10:31;95552.47;;;4.90;100.00
42001;BME280;27689;48.390;10.856;2023-12-14T06:13:16;95554.94;;;4.92;100.00
42001;BME280;27689;48.390;10.856;2023-12-14T06:16:00;95569.56;;;4.93;100.00
42001;BME280;27689;48.390;10.856;2023-12-14T06:18:43;95567.56;;;4.96;100.00
42001;BME280;27689;48.390;10.856;2023-12-14T06:21:27;95572.88;;;4.95;100.00
42001;BME280;27689;48.390;10.856;2023-12-14T06:24:12;95581.47;;;4.95;100.00
42001;BME280;27689;48.390;10.856;2023-12-14T06:26:56;95580.41;;;4.98;100.00
42001;BME280;27689;48.390;10.856;2023-12-14T06:29:40;95588.56;;;4.93;100.00
42001;BME280;27689;48.390;10.856;2023-12-14T06:32:24;95595.41;;;4.94;100.00
42001;BME280;27689;48.390;10.856;2023-12-14T06:35:08;95599.53;;;4.97;100.00
42001;BME280;27689;48.390;10.856;2023-12-14T06:37:52;95599.28;;;5.00;100.00
42001;BME280;27689;48.390;10.856;2023-12-14T06:40:36;95606.25;;;5.00;100.00
42001;BME280;27689;48.390;10.856;2023-12-14T06:43:20;95609.22;;;4.95;100.00
42001;BME280;27689;48.390;10.856;2023-12-14T06:46:05;95619.94;;;5.02;100.00
42001;BME280;27689;48.390;10.856;2023-12-14T06:48:48;95626.25;;;5.09;100.00
42001;BME280;27689;48.390;10.856;2023-12-14T06:51:35;95626.72;;;5.14;100.00
42001;BME280;27689;48.390;10.856;2023-12-14T06:54:24;95633.91;;;5.10;100.00
42001;BME280;27689;48.390;10.856;2023-12-14T06:57:08;95642.78;;;5.08;100.00
42001;BME280;27689;48.390;10.856;2023-12-14T06:59:52;95641.25;;;5.05;100.00
42001;BME280;27689;48.390;10.856;2023-12-14T07:02:36;95647.53;;;5.23;100.00
42001;BME280;27689;48.390;10.856;2023-12-14T07:05:20;95652.69;;;5.14;100.00
42001;BME280;27689;48.390;10.856;2023-12-14T07:08:04;95657.28;;;5.10;100.00
42001;BME280;27689;48.390;10.856;2023-12-14T07:10:48;95658.34;;;5.08;100.00
42001;BME280;27689;48.390;10.856;2023-12-14T07:13:32;95665.19;;;5.09;100.00
42001;BME280;27689;48.390;10.856;2023-12-14T07:16:16;95671.56;;;5.16;100.00
42001;BME280;27689;48.390;10.856;2023-12-14T07:19:01;95677.00;;;5.13;100.00
42001;BME280;27689;48.390;10.856;2023-12-14T07:21:45;95673.75;;;5.20;100.00
42001;BME280;27689;48.390;10.856;2023-12-14T07:24:29;95689.59;;;5.17;100.00
42001;BME280;27689;48.390;10.856;2023-12-14T07:27:14;95692.44;;;5.14;100.00
42001;BME280;27689;48.390;10.856;2023-12-14T07:29:58;95694.41;;;5.22;100.00
42001;BME280;27689;48.390;10.856;2023-12-14T07:32:42;95693.22;;;5.26;100.00
42001;BME280;27689;48.390;10.856;2023-12-14T07:35:26;95695.34;;;5.21;100.00
42001;BME280;27689;48.390;10.856;2023-12-14T07:38:10;95697.41;;;5.17;100.00
42001;BME280;27689;48.390;10.856;2023-12-14T07:40:54;95695.50;;;5.19;100.00
42001;BME280;27689;48.390;10.856;2023-12-14T07:43:38;95702.31;;;5.20;100.00
42001;BME280;27689;48.390;10.856;2023-12-14T07:46:22;95711.50;;;5.24;100.00
42001;BME280;27689;48.390;10.856;2023-12-14T07:49:06;95717.41;;;5.26;100.00
42001;BME280;27689;48.390;10.856;2023-12-14T07:51:50;95728.13;;;5.33;100.00
42001;BME280;27689;48.390;10.856;2023-12-14T07:54:35;95730.81;;;5.43;100.00
42001;BME280;27689;48.390;10.856;2023-12-14T07:57:19;95732.94;;;5.38;100.00
42001;BME280;27689;48.390;10.856;2023-12-14T08:00:03;95732.13;;;5.37;100.00
42001;BME280;27689;48.390;10.856;2023-12-14T08:02:47;95742.63;;;5.36;100.00
42001;BME280;27689;48.390;10.856;2023-12-14T08:05:31;95743.09;;;5.41;100.00
42001;BME280;27689;48.390;10.856;2023-12-14T08:08:15;95738.72;;;5.41;100.00
42001;BME280;27689;48.390;10.856;2023-12-14T08:10:59;95747.91;;;5.45;100.00
42001;BME280;27689;48.390;10.856;2023-12-14T08:13:43;95751.34;;;5.46;100.00
42001;BME280;27689;48.390;10.856;2023-12-14T08:16:27;95752.28;;;5.45;100.00
42001;BME280;27689;48.390;10.856;2023-12-14T08:19:11;95757.84;;;5.40;100.00
42001;BME280;27689;48.390;10.856;2023-12-14T08:21:55;95762.91;;;5.42;100.00
42001;BME280;27689;48.390;10.856;2023-12-14T08:24:39;95771.41;;;5.44;100.00
42001;BME280;27689;48.390;10.856;2023-12-14T08:27:24;95777.44;;;5.44;100.00
42001;BME280;27689;48.390;10.856;2023-12-14T08:30:08;95781.06;;;5.53;100.00
42001;BME280;27689;48.390;10.856;2023-12-14T08:32:52;95792.75;;;5.58;100.00
42001;BME280;27689;48.390;10.856;2023-12-14T08:35:37;95800.19;;;5.52;100.00
42001;BME280;27689;48.390;10.856;2023-12-14T08:38:21;95806.09;;;5.54;100.00
42001;BME280;27689;48.390;10.856;2023-12-14T08:41:05;95809.03;;;5.60;100.00
42001;BME280;27689;48.390;10.856;2023-12-14T08:43:49;95807.63;;;5.56;100.00
42001;BME280;27689;48.390;10.856;2023-12-14T08:46:40;95812.34;;;5.62;100.00
42001;BME280;27689;48.390;10.856;2023-12-14T08:49:24;95823.09;;;5.58;100.00
42001;BME280;27689;48.390;10.856;2023-12-14T08:52:08;95825.56;;;5.59;100.00
42001;BME280;27689;48.390;10.856;2023-12-14T08:54:54;95828.06;;;5.61;100.00
42001;BME280;27689;48.390;10.856;2023-12-14T08:57:38;95829.94;;;5.59;100.00
42001;BME280;27689;48.390;10.856;2023-12-14T09:00:22;95829.19;;;5.68;100.00
42001;BME280;27689;48.390;10.856;2023-12-14T09:03:07;95833.19;;;5.72;100.00
42001;BME280;27689;48.390;10.856;2023-12-14T09:05:51;95840.88;;;5.74;100.00
42001;BME280;27689;48.390;10.856;2023-12-14T09:08:35;95848.03;;;5.81;100.00
42001;BME280;27689;48.390;10.856;2023-12-14T09:11:19;95850.63;;;5.81;100.00
42001;BME280;27689;48.390;10.856;2023-12-14T09:14:03;95863.38;;;5.84;100.00
42001;BME280;27689;48.390;10.856;2023-12-14T09:16:47;95867.88;;;5.82;100.00
42001;BME280;27689;48.390;10.856;2023-12-14T09:19:31;95858.00;;;5.76;100.00
42001;BME280;27689;48.390;10.856;2023-12-14T09:22:15;95872.13;;;5.83;100.00
42001;BME280;27689;48.390;10.856;2023-12-14T09:24:59;95880.19;;;5.91;100.00
42001;BME280;27689;48.390;10.856;2023-12-14T09:27:43;95885.34;;;6.03;100.00
42001;BME280;27689;48.390;10.856;2023-12-14T09:30:27;95885.09;;;6.06;100.00
42001;BME280;27689;48.390;10.856;2023-12-14T09:33:11;95889.78;;;6.12;100.00
42001;BME280;27689;48.390;10.856;2023-12-14T09:35:54;95894.44;;;6.08;100.00
42001;BME280;27689;48.390;10.856;2023-12-14T09:38:38;95902.06;;;6.21;100.00
42001;BME280;27689;48.390;10.856;2023-12-14T09:41:22;95900.53;;;6.18;100.00
42001;BME280;27689;48.390;10.856;2023-12-14T09:44:07;95903.81;;;6.20;100.00
42001;BME280;27689;48.390;10.856;2023-12-14T09:46:51;95900.81;;;6.25;100.00
42001;BME280;27689;48.390;10.856;2023-12-14T09:49:35;95908.59;;;6.36;100.00
42001;BME280;27689;48.390;10.856;2023-12-14T09:52:19;95914.50;;;6.38;100.00
42001;BME280;27689;48.390;10.856;2023-12-14T09:55:03;95912.09;;;6.46;100.00
42001;BME280;27689;48.390;10.856;2023-12-14T09:57:48;95917.41;;;6.45;100.00
42001;BME280;27689;48.390;10.856;2023-12-14T10:00:35;95924.16;;;6.47;100.00
42001;BME280;27689;48.390;10.856;2023-12-14T10:03:25;95919.44;;;6.62;100.00
42001;BME280;27689;48.390;10.856;2023-12-14T10:06:12;95917.44;;;6.65;100.00
42001;BME280;27689;48.390;10.856;2023-12-14T10:08:56;95920.06;;;6.75;100.00
42001;BME280;27689;48.390;10.856;2023-12-14T10:11:41;95920.44;;;6.70;100.00
42001;BME280;27689;48.390;10.856;2023-12-14T10:14:25;95932.50;;;6.92;100.00
42001;BME280;27689;48.390;10.856;2023-12-14T10:17:19;95923.75;;;6.93;100.00
42001;BME280;27689;48.390;10.856;2023-12-14T10:20:04;95927.50;;;6.80;100.00
42001;BME280;27689;48.390;10.856;2023-12-14T10:22:49;95927.69;;;6.88;100.00
42001;BME280;27689;48.390;10.856;2023-12-14T10:25:33;95937.28;;;6.87;100.00
42001;BME280;27689;48.390;10.856;2023-12-14T10:28:19;95931.09;;;6.88;100.00
42001;BME280;27689;48.390;10.856;2023-12-14T10:31:03;95935.81;;;6.94;100.00
42001;BME280;27689;48.390;10.856;2023-12-14T10:33:48;95935.25;;;6.91;100.00
42001;BME280;27689;48.390;10.856;2023-12-14T10:36:33;95931.81;;;6.90;100.00
42001;BME280;27689;48.390;10.856;2023-12-14T10:39:17;95936.50;;;6.96;100.00
42001;BME280;27689;48.390;10.856;2023-12-14T10:42:02;95942.56;;;6.97;100.00
42001;BME280;27689;48.390;10.856;2023-12-14T10:44:51;95937.47;;;6.95;100.00
42001;BME280;27689;48.390;10.856;2023-12-14T10:47:37;95947.81;;;6.86;100.00
42001;BME280;27689;48.390;10.856;2023-12-14T10:50:22;95952.50;;;6.92;100.00
42001;BME280;27689;48.390;10.856;2023-12-14T10:53:07;95947.81;;;7.06;100.00
42001;BME280;27689;48.390;10.856;2023-12-14T10:55:51;95949.31;;;7.09;100.00
42001;BME280;27689;48.390;10.856;2023-12-14T10:58:51;95952.34;;;7.14;100.00
42001;BME280;27689;48.390;10.856;2023-12-14T11:01:35;95958.78;;;7.10;100.00
42001;BME280;27689;48.390;10.856;2023-12-14T11:04:23;95959.91;;;7.17;100.00
42001;BME280;27689;48.390;10.856;2023-12-14T11:07:07;95957.31;;;7.17;100.00
42001;BME280;27689;48.390;10.856;2023-12-14T11:09:54;95955.16;;;7.22;100.00
42001;BME280;27689;48.390;10.856;2023-12-14T11:12:38;95968.78;;;7.35;100.00
42001;BME280;27689;48.390;10.856;2023-12-14T11:15:34;95969.72;;;7.34;100.00
42001;BME280;27689;48.390;10.856;2023-12-14T11:21:01;95979.34;;;7.43;100.00
42001;BME280;27689;48.390;10.856;2023-12-14T11:23:45;95987.63;;;7.49;100.00
42001;BME280;27689;48.390;10.856;2023-12-14T11:26:29;95982.06;;;7.63;100.00
42001;BME280;27689;48.390;10.856;2023-12-14T11:29:13;95989.50;;;7.67;100.00
42001;BME280;27689;48.390;10.856;2023-12-14T11:31:57;95994.81;;;7.66;100.00
42001;BME280;27689;48.390;10.856;2023-12-14T11:34:41;95996.44;;;7.57;100.00
42001;BME280;27689;48.390;10.856;2023-12-14T11:37:25;95990.56;;;7.65;100.00
42001;BME280;27689;48.390;10.856;2023-12-14T11:40:11;95993.19;;;7.65;100.00
42001;BME280;27689;48.390;10.856;2023-12-14T11:43:00;95992.47;;;7.63;100.00
42001;BME280;27689;48.390;10.856;2023-12-14T11:45:44;96001.94;;;7.54;100.00
42001;BME280;27689;48.390;10.856;2023-12-14T11:48:28;96001.50;;;7.59;100.00
42001;BME280;27689;48.390;10.856;2023-12-14T11:51:12;96001.94;;;7.54;100.00
42001;BME280;27689;48.390;10.856;2023-12-14T11:53:56;96003.84;;;7.52;100.00
42001;BME280;27689;48.390;10.856;2023-12-14T11:56:50;96020.09;;;7.44;100.00
42001;BME280;27689;48.390;10.856;2023-12-14T11:59:34;96022.72;;;7.44;100.00
42001;BME280;27689;48.390;10.856;2023-12-14T12:02:22;96021.47;;;7.39;100.00
42001;BME280;27689;48.390;10.856;2023-12-14T12:05:06;96025.84;;;7.38;100.00
42001;BME280;27689;48.390;10.856;2023-12-14T12:07:56;96029.16;;;7.40;100.00
42001;BME280;27689;48.390;10.856;2023-12-14T12:10:41;96028.63;;;7.47;100.00
42001;BME280;27689;48.390;10.856;2023-12-14T12:13:25;96026.84;;;7.47;100.00
42001;BME280;27689;48.390;10.856;2023-12-14T12:16:09;96032.03;;;7.37;100.00
42001;BME280;27689;48.390;10.856;2023-12-14T12:18:53;96031.19;;;7.37;100.00
42001;BME280;27689;48.390;10.856;2023-12-14T12:21:37;96033.25;;;7.43;100.00
42001;BME280;27689;48.390;10.856;2023-12-14T12:24:21;96029.06;;;7.52;100.00
42001;BME280;27689;48.390;10.856;2023-12-14T12:27:05;96029.72;;;7.44;100.00
42001;BME280;27689;48.390;10.856;2023-12-14T12:29:49;96026.41;;;7.42;100.00
42001;BME280;27689;48.390;10.856;2023-12-14T12:32:37;96027.06;;;7.34;100.00
42001;BME280;27689;48.390;10.856;2023-12-14T12:35:21;96031.19;;;7.37;100.00
42001;BME280;27689;48.390;10.856;2023-12-14T12:38:05;96028.25;;;7.51;100.00
42001;BME280;27689;48.390;10.856;2023-12-14T12:40:49;96034.03;;;7.55;100.00
42001;BME280;27689;48.390;10.856;2023-12-14T12:43:33;96040.91;;;7.56;100.00
42001;BME280;27689;48.390;10.856;2023-12-14T12:46:17;96040.13;;;7.44;100.00
42001;BME280;27689;48.390;10.856;2023-12-14T12:49:01;96040.44;;;7.51;100.00
42001;BME280;27689;48.390;10.856;2023-12-14T12:51:46;96045.78;;;7.49;100.00
42001;BME280;27689;48.390;10.856;2023-12-14T12:54:31;96051.38;;;7.44;100.00
42001;BME280;27689;48.390;10.856;2023-12-14T12:57:16;96055.84;;;7.54;100.00
42001;BME280;27689;48.390;10.856;2023-12-14T13:00:01;96058.25;;;7.46;100.00
42001;BME280;27689;48.390;10.856;2023-12-14T13:02:46;96062.00;;;7.53;100.00
42001;BME280;27689;48.390;10.856;2023-12-14T13:05:30;96062.28;;;7.59;100.00
42001;BME280;27689;48.390;10.856;2023-12-14T13:08:14;96067.88;;;7.75;100.00
42001;BME280;27689;48.390;10.856;2023-12-14T13:10:58;96068.59;;;7.87;100.00
42001;BME280;27689;48.390;10.856;2023-12-14T13:13:42;96064.91;;;7.90;100.00
42001;BME280;27689;48.390;10.856;2023-12-14T13:16:27;96069.88;;;8.02;100.00
42001;BME280;27689;48.390;10.856;2023-12-14T13:19:11;96070.34;;;8.17;100.00
42001;BME280;27689;48.390;10.856;2023-12-14T13:21:54;96072.88;;;8.28;100.00
42001;BME280;27689;48.390;10.856;2023-12-14T13:24:40;96077.44;;;8.36;100.00
42001;BME280;27689;48.390;10.856;2023-12-14T13:27:24;96081.59;;;8.48;100.00
42001;BME280;27689;48.390;10.856;2023-12-14T13:30:09;96084.88;;;8.50;100.00
42001;BME280;27689;48.390;10.856;2023-12-14T13:32:53;96087.38;;;8.52;100.00
42001;BME280;27689;48.390;10.856;2023-12-14T13:35:37;96092.31;;;8.55;100.00
42001;BME280;27689;48.390;10.856;2023-12-14T13:38:21;96095.88;;;8.44;100.00
42001;BME280;27689;48.390;10.856;2023-12-14T13:41:05;96102.84;;;8.34;100.00
42001;BME280;27689;48.390;10.856;2023-12-14T13:43:49;96105.72;;;8.31;100.00
42001;BME280;27689;48.390;10.856;2023-12-14T13:46:33;96115.91;;;8.34;100.00
42001;BME280;27689;48.390;10.856;2023-12-14T13:49:16;96121.50;;;8.29;100.00
42001;BME280;27689;48.390;10.856;2023-12-14T13:52:01;96120.63;;;8.19;100.00
42001;BME280;27689;48.390;10.856;2023-12-14T13:54:45;96129.00;;;8.13;100.00
42001;BME280;27689;48.390;10.856;2023-12-14T13:57:29;96134.56;;;7.99;100.00
42001;BME280;27689;48.390;10.856;2023-12-14T14:00:13;96143.28;;;7.88;98.34
42001;BME280;27689;48.390;10.856;2023-12-14T14:02:57;96146.16;;;7.85;99.63
42001;BME280;27689;48.390;10.856;2023-12-14T14:05:41;96153.22;;;7.73;99.70
42001;BME280;27689;48.390;10.856;2023-12-14T14:08:27;96157.19;;;7.68;100.00
42001;BME280;27689;48.390;10.856;2023-12-14T14:11:11;96162.13;;;7.50;100.00
42001;BME280;27689;48.390;10.856;2023-12-14T14:13:56;96170.91;;;7.49;100.00
42001;BME280;27689;48.390;10.856;2023-12-14T14:16:40;96179.56;;;7.50;100.00
42001;BME280;27689;48.390;10.856;2023-12-14T14:19:24;96182.22;;;7.38;100.00
42001;BME280;27689;48.390;10.856;2023-12-14T14:22:08;96185.94;;;7.25;100.00